createdAt,value
2018-09-16T00:04:39.836Z,10.70
2018-09-16T00:09:44.193Z,10.40
2018-09-16T00:14:47.732Z,10.60
2018-09-16T00:19:51.419Z,10.60
2018-09-16T00:24:55.256Z,10.60
2018-09-16T00:29:58.826Z,10.50
2018-09-16T00:35:02.504Z,10.50
2018-09-16T00:40:06.134Z,10.40
2018-09-16T00:45:10.523Z,10.60
2018-09-16T00:50:14.253Z,10.80
2018-09-16T00:55:17.810Z,10.60
2018-09-16T01:00:21.393Z,10.40
2018-09-16T01:05:24.970Z,10.10
2018-09-16T01:10:28.605Z,10.20
2018-09-16T01:15:32.218Z,9.90
2018-09-16T01:20:37.031Z,10.40
2018-09-16T01:25:40.749Z,9.90
2018-09-16T01:30:44.295Z,9.80
2018-09-16T01:35:47.887Z,9.70
2018-09-16T01:40:52.251Z,9.60
2018-09-16T01:45:56.904Z,9.60
2018-09-16T01:51:00.572Z,9.60
2018-09-16T01:56:05.278Z,9.40
2018-09-16T02:01:09.914Z,9.40
2018-09-16T02:06:15.597Z,10.20
2018-09-16T02:11:19.235Z,10.00
2018-09-16T02:16:22.915Z,9.40
2018-09-16T02:21:26.572Z,9.20
2018-09-16T02:26:31.225Z,9.40
2018-09-16T02:31:34.781Z,9.30
2018-09-16T02:36:38.326Z,9.50
2018-09-16T02:41:42.920Z,9.40
2018-09-16T02:46:46.470Z,9.20
2018-09-16T02:51:50.098Z,9.20
2018-09-16T02:56:53.649Z,9.30
2018-09-16T03:01:57.230Z,8.90
2018-09-16T03:07:01.390Z,8.80
2018-09-16T03:12:05.127Z,8.80
2018-09-16T03:17:08.701Z,8.90
2018-09-16T03:22:12.267Z,9.20
2018-09-16T03:27:15.857Z,8.90
2018-09-16T03:32:19.432Z,8.80
2018-09-16T03:37:23.071Z,9.10
2018-09-16T03:42:26.623Z,8.90
2018-09-16T03:47:30.170Z,8.70
2018-09-16T03:52:34.039Z,8.60
2018-09-16T03:57:37.676Z,8.50
2018-09-16T04:02:41.325Z,8.40
2018-09-16T04:07:45.091Z,8.50
2018-09-16T04:12:49.638Z,8.50
2018-09-16T04:17:53.309Z,8.40
2018-09-16T04:22:56.935Z,8.50
2018-09-16T04:28:00.586Z,8.20
2018-09-16T04:33:07.796Z,8.10
2018-09-16T04:38:12.508Z,8.20
2018-09-16T04:43:16.382Z,8.10
2018-09-16T04:48:20.026Z,8.10
2018-09-16T04:53:23.726Z,8.40
2018-09-16T04:58:27.333Z,8.30
2018-09-16T05:03:31.043Z,8.60
2018-09-16T05:08:36.747Z,8.10
2018-09-16T05:13:41.542Z,7.90
2018-09-16T05:18:45.140Z,7.80
2018-09-16T05:23:48.734Z,7.80
2018-09-16T05:28:52.407Z,8.00
2018-09-16T05:33:56.072Z,8.10
2018-09-16T05:38:59.777Z,8.10
2018-09-16T05:44:03.490Z,7.90
2018-09-16T05:49:09.271Z,8.00
2018-09-16T05:54:12.860Z,8.40
2018-09-16T05:59:17.680Z,8.60
2018-09-16T06:04:21.380Z,8.60
2018-09-16T06:09:24.951Z,8.50
2018-09-16T06:14:29.801Z,8.60
2018-09-16T06:19:36.663Z,8.80
2018-09-16T06:24:40.353Z,8.70
2018-09-16T06:29:44.047Z,8.70
2018-09-16T06:34:47.726Z,8.90
2018-09-16T06:39:51.538Z,9.10
2018-09-16T06:44:56.240Z,9.30
2018-09-16T06:49:59.966Z,9.60
2018-09-16T06:55:03.583Z,9.90
2018-09-16T07:00:08.038Z,9.90
2018-09-16T07:05:11.783Z,10.20
2018-09-16T07:10:15.580Z,10.30
2018-09-16T07:15:20.464Z,10.60
2018-09-16T07:20:24.035Z,10.80
2018-09-16T07:25:27.655Z,11.10
2018-09-16T07:30:31.298Z,11.40
2018-09-16T07:35:35.938Z,11.80
2018-09-16T07:40:39.525Z,11.80
2018-09-16T07:45:43.122Z,12.20
2018-09-16T07:50:46.770Z,12.80
2018-09-16T07:55:50.478Z,12.90
2018-09-16T08:01:00.076Z,13.60
2018-09-16T08:06:04.748Z,16.30
2018-09-16T08:11:08.450Z,18.00
2018-09-16T08:16:12.190Z,19.90
2018-09-16T08:21:15.872Z,20.90
2018-09-16T08:26:19.365Z,19.60
2018-09-16T08:31:22.895Z,18.80
2018-09-16T08:36:26.442Z,19.50
2018-09-16T08:41:30.106Z,19.50
2018-09-16T08:46:33.662Z,20.20
2018-09-16T08:51:37.485Z,20.80
2018-09-16T08:56:41.033Z,21.50
2018-09-16T09:01:44.715Z,20.90
2018-09-16T09:06:48.267Z,21.10
2018-09-16T09:11:51.868Z,22.20
2018-09-16T09:16:55.673Z,22.20
2018-09-16T09:22:00.211Z,22.00
2018-09-16T09:27:03.969Z,22.30
2018-09-16T09:32:08.748Z,22.90
2018-09-16T09:37:18.775Z,23.30
2018-09-16T09:42:25.955Z,22.80
2018-09-16T09:47:37.562Z,23.90
2018-09-16T09:52:48.356Z,23.90
2018-09-16T09:57:57.489Z,24.00
2018-09-16T10:03:03.916Z,23.30
2018-09-16T10:08:11.893Z,24.40
2018-09-16T10:13:17.306Z,25.40
2018-09-16T10:18:21.098Z,25.50
2018-09-16T10:23:25.997Z,26.70
2018-09-16T10:28:29.722Z,26.90
2018-09-16T10:33:33.401Z,28.60
2018-09-16T10:38:37.263Z,29.20
2018-09-16T10:43:41.722Z,28.90
2018-09-16T10:48:51.195Z,29.00
2018-09-16T10:53:55.108Z,29.40
2018-09-16T10:58:58.974Z,29.80
2018-09-16T11:04:02.594Z,31.10
2018-09-16T11:09:08.661Z,28.10
2018-09-16T11:14:13.109Z,25.10
2018-09-16T11:19:18.007Z,23.90
2018-09-16T11:24:21.700Z,23.90
2018-09-16T11:29:29.269Z,23.90
2018-09-16T11:34:33.322Z,23.90
2018-09-16T11:39:38.163Z,23.80
2018-09-16T11:44:42.926Z,23.50
2018-09-16T11:49:52.477Z,23.80
2018-09-16T11:54:56.103Z,23.80
2018-09-16T11:59:59.742Z,23.40
2018-09-16T12:05:04.346Z,23.70
2018-09-16T12:10:11.390Z,23.50
2018-09-16T12:15:14.943Z,23.70
2018-09-16T12:20:19.634Z,23.40
2018-09-16T12:25:23.242Z,23.90
2018-09-16T12:30:26.876Z,23.40
2018-09-16T12:35:37.107Z,23.30
2018-09-16T12:40:40.658Z,23.40
2018-09-16T12:45:44.206Z,23.10
2018-09-16T12:50:48.077Z,22.80
2018-09-16T12:55:51.633Z,22.80
2018-09-16T13:00:56.342Z,22.70
2018-09-16T13:05:59.922Z,22.60
2018-09-16T13:11:03.510Z,22.40
2018-09-16T13:16:07.068Z,22.90
2018-09-16T13:21:10.727Z,22.90
2018-09-16T13:26:14.247Z,23.00
2018-09-16T13:31:17.803Z,22.90
2018-09-16T13:36:21.622Z,22.50
2018-09-16T13:41:25.217Z,22.40
2018-09-16T13:46:28.850Z,22.20
2018-09-16T13:51:32.414Z,22.40
2018-09-16T13:56:35.933Z,22.60
2018-09-16T14:01:39.471Z,22.80
2018-09-16T14:06:43.121Z,22.70
2018-09-16T14:11:46.744Z,22.80
2018-09-16T14:16:50.377Z,22.70
2018-09-16T14:21:54.077Z,22.80
2018-09-16T14:26:57.688Z,22.30
2018-09-16T14:32:01.291Z,22.70
2018-09-16T14:37:04.942Z,22.80
2018-09-16T14:42:08.522Z,22.90
2018-09-16T14:47:12.082Z,22.60
2018-09-16T14:52:15.730Z,22.70
2018-09-16T14:57:19.306Z,22.60
2018-09-16T15:02:23.104Z,22.80
2018-09-16T15:07:26.719Z,22.80
2018-09-16T15:12:32.312Z,22.80
2018-09-16T15:17:35.972Z,23.80
2018-09-16T15:22:39.710Z,22.70
2018-09-16T15:27:43.313Z,22.70
2018-09-16T15:32:47.113Z,22.50
2018-09-16T15:37:50.758Z,22.50
2018-09-16T15:42:54.350Z,22.40
2018-09-16T15:47:57.977Z,22.20
2018-09-16T15:53:01.523Z,22.20
2018-09-16T15:58:05.205Z,22.20
2018-09-16T16:03:08.932Z,21.90
2018-09-16T16:08:12.542Z,22.00
2018-09-16T16:13:16.208Z,21.90
2018-09-16T16:18:19.791Z,21.90
2018-09-16T16:23:23.545Z,21.90
2018-09-16T16:28:27.120Z,21.90
2018-09-16T16:33:30.779Z,21.70
2018-09-16T16:38:34.426Z,21.70
2018-09-16T16:43:37.970Z,21.60
2018-09-16T16:48:41.499Z,21.60
2018-09-16T16:53:45.042Z,21.50
2018-09-16T16:58:49.930Z,21.40
2018-09-16T17:03:53.552Z,21.20
2018-09-16T17:09:02.306Z,21.10
2018-09-16T17:14:07.963Z,20.90
2018-09-16T17:19:12.590Z,20.80
2018-09-16T17:24:19.688Z,20.60
2018-09-16T17:29:23.354Z,20.50
2018-09-16T17:34:26.981Z,20.20
2018-09-16T17:39:30.556Z,19.90
2018-09-16T17:44:34.267Z,19.50
2018-09-16T17:49:37.882Z,19.10
2018-09-16T17:54:41.514Z,18.70
2018-09-16T17:59:45.071Z,18.50
2018-09-16T18:04:48.670Z,18.40
2018-09-16T18:09:52.377Z,18.20
2018-09-16T18:14:56.059Z,18.10
2018-09-16T18:20:00.810Z,17.90
2018-09-16T18:35:11.423Z,17.60
2018-09-16T18:40:15.155Z,17.50
2018-09-16T18:45:19.906Z,17.40
2018-09-16T18:50:23.599Z,17.20
2018-09-16T18:55:27.177Z,17.20
2018-09-16T19:00:31.727Z,17.00
2018-09-16T19:05:35.408Z,16.90
2018-09-16T19:10:39.269Z,16.90
2018-09-16T19:15:43.022Z,16.80
2018-09-16T19:20:48.590Z,16.50
2018-09-16T19:25:52.242Z,16.50
2018-09-16T19:30:56.337Z,16.30
2018-09-16T19:35:59.888Z,16.20
2018-09-16T19:41:04.510Z,16.20
2018-09-16T19:46:08.106Z,16.20
2018-09-16T19:51:19.166Z,16.00
2018-09-16T19:56:22.955Z,16.00
2018-09-16T20:01:27.617Z,15.80
2018-09-16T20:06:31.521Z,15.60
2018-09-16T20:11:35.551Z,15.50
2018-09-16T20:16:39.201Z,15.40
2018-09-16T20:21:42.905Z,15.10
2018-09-16T20:26:47.103Z,14.90
2018-09-16T20:31:50.891Z,15.00
2018-09-16T20:36:55.337Z,14.80
2018-09-16T20:41:59.939Z,14.70
2018-09-16T20:47:03.810Z,14.70
2018-09-16T20:52:08.580Z,14.70
2018-09-16T20:57:12.317Z,14.50
2018-09-16T21:02:15.913Z,14.50
2018-09-16T21:07:19.822Z,14.50
2018-09-16T21:12:23.459Z,14.30
2018-09-16T21:17:29.240Z,14.10
2018-09-16T21:22:32.810Z,14.10
2018-09-16T21:27:36.593Z,14.10
2018-09-16T21:32:40.337Z,14.30
2018-09-16T21:37:45.058Z,14.00
2018-09-16T21:42:48.659Z,13.90
2018-09-16T21:47:52.258Z,13.90
2018-09-16T21:52:55.970Z,13.90
2018-09-16T21:57:59.917Z,13.70
2018-09-16T22:03:03.595Z,13.60
2018-09-16T22:08:07.267Z,13.70
2018-09-16T22:13:11.052Z,13.50
2018-09-16T22:18:14.691Z,13.40
2018-09-16T22:23:18.412Z,13.20
2018-09-16T22:28:22.165Z,13.20
2018-09-16T22:33:25.805Z,13.20
2018-09-16T22:38:29.367Z,13.20
2018-09-16T22:43:32.973Z,13.50
2018-09-16T22:48:36.519Z,13.00
2018-09-16T22:53:40.062Z,12.80
2018-09-16T22:58:43.658Z,12.70
2018-09-16T23:03:47.363Z,12.80
2018-09-16T23:08:56.115Z,12.70
2018-09-16T23:13:59.654Z,13.00
2018-09-16T23:19:03.184Z,13.20
2018-09-16T23:24:06.788Z,12.70
2018-09-16T23:29:10.415Z,12.40
2018-09-16T23:34:13.954Z,12.40
2018-09-16T23:39:17.671Z,12.40
2018-09-16T23:44:21.399Z,12.30
2018-09-16T23:49:25.089Z,12.20
2018-09-16T23:54:28.718Z,12.10
2018-09-16T23:59:32.322Z,12.50
